^^

Nearby METAR Reports


EGAC - Belfast Harbour, United Kingdom
Distance from station: W 8mi, 13km
Updated: 23/10/2018 04:20
Mostly cloudy
Mostly cloudy
 Wind from SW
Wind: SW 13 mph , 20 km/h
Temperature: 52°F , 11°C
Dew Point: 45°F , 7°C
Humidity: 77%
Barometer: 1032 hPa
Clouds: Mostly cloudy
Visibility: 6 miles , 10 km
Cloud details: Mostly cloudy 2400 ft
2018/10/23 03:20 EGAC 230320Z AUTO 23011KT 9999 BKN024/// 11/07 Q1032
EGAA - Belfast/Aldergro, United Kingdom
Distance from station: W 22mi, 35km
Updated: 23/10/2018 04:20
Mostly cloudy
Mostly cloudy
 Wind from W
Wind: W 17 mph , 28 km/h
Temperature: 52°F , 11°C
Dew Point: 45°F , 7°C
Humidity: 77%
Barometer: 1032 hPa
Clouds: Mostly cloudy
Visibility: 6 miles , 10 km
Cloud details: Mostly cloudy 2100 ft
2018/10/23 03:20 EGAA 230320Z 27015KT 9999 BKN021 11/07 Q1032
 
EGNS - Isle Of Man/Rona, United Kingdom
Distance from station: SE 57mi, 91km
Updated: 23/10/2018 02:50
NOT Current
Overcast
Overcast
 Wind from W
Wind: W 21 mph , 33 km/h
Temperature: 54°F , 12°C
Dew Point: 45°F , 7°C
Humidity: 72%
Barometer: 1033 hPa
Clouds: Overcast
Visibility: 6 miles , 10 km
Cloud details: Overcast 2000 ft
2018/10/23 01:50 EGNS 230150Z 28018KT 240V320 9999 OVC020 12/07 Q1033
EGPK - Prestwick(Civ/Na, United Kingdom
Distance from station: NE 74mi, 119km
Updated: 23/10/2018 03:50
Mostly cloudy
Mostly cloudy
 Wind from W
Wind: W 26 mph , 43 km/h, Gust: 38 mph , 61 km/h
Temperature: 54°F , 12°C
Dew Point: 46°F , 8°C
Humidity: 77%
Barometer: 1029 hPa
Clouds: Mostly cloudy
Visibility: 6 miles , 10 km
Cloud details: Few Clouds 1200 ft
Mostly cloudy 3500 ft
2018/10/23 02:50 EGPK 230250Z 28023G33KT 9999 FEW012 BKN035 12/08 Q1029
 
EIDW - Dublin Airport, Ireland
Distance from station: SSW 87mi, 141km
Updated: 23/10/2018 04:30
Few Clouds
Few Clouds
 Wind from W
Wind: W 21 mph , 33 km/h
Temperature: 46°F , 8°C
Wind Chill: 38°F , 3°C
Dew Point: 43°F , 6°C
Humidity: 87%
Barometer: 1034 hPa
Clouds: Few Clouds
Visibility: 6 miles , 10 km
Cloud details: Few Clouds 2800 ft
2018/10/23 03:30 EIDW 230330Z 27018KT 9999 FEW028 08/06 Q1034 NOSIG
EGPF - Glasgow Airport, United Kingdom
Distance from station: NNE 98mi, 158km
Updated: 23/10/2018 04:20
Overcast
Overcast
 Wind from WSW
Wind: WSW 23 mph , 37 km/h
Temperature: 52°F , 11°C
Dew Point: 46°F , 8°C
Humidity: 82%
Barometer: 1027 hPa
Clouds: Overcast
Visibility: 6 miles , 10 km
Cloud details: Mostly cloudy 2000 ft
Overcast 3500 ft
2018/10/23 03:20 EGPF 230320Z AUTO 25020KT 9999 BKN020 OVC035 11/08 Q1027